createdAt,value
2019-01-06T00:01:28.899Z,5.60
2019-01-06T00:04:00.355Z,5.60
2019-01-06T00:06:29.964Z,5.70
2019-01-06T00:08:59.525Z,5.70
2019-01-06T00:11:29.113Z,5.60
2019-01-06T00:13:57.955Z,5.60
2019-01-06T00:16:29.565Z,5.60
2019-01-06T00:19:03.368Z,5.60
2019-01-06T00:21:33.206Z,5.60
2019-01-06T00:24:07.623Z,5.60
2019-01-06T00:26:38.101Z,5.60
2019-01-06T00:29:08.431Z,5.60
2019-01-06T00:31:37.282Z,5.60
2019-01-06T00:34:06.145Z,5.60
2019-01-06T00:36:41.193Z,5.60
2019-01-06T00:39:12.837Z,5.60
2019-01-06T00:41:41.681Z,5.60
2019-01-06T00:44:11.371Z,5.70
2019-01-06T00:46:45.711Z,5.60
2019-01-06T00:49:20.047Z,5.60
2019-01-06T00:54:19.344Z,5.60
2019-01-06T00:56:53.131Z,5.60
2019-01-06T00:59:22.887Z,5.60
2019-01-06T01:01:53.504Z,5.60
2019-01-06T01:04:27.963Z,5.60
2019-01-06T01:07:01.633Z,5.60
2019-01-06T01:09:36.052Z,5.60
2019-01-06T01:12:10.414Z,5.70
2019-01-06T01:14:39.239Z,5.60
2019-01-06T01:17:08.081Z,5.60
2019-01-06T01:19:37.779Z,5.60
2019-01-06T01:22:13.350Z,5.60
2019-01-06T01:24:46.911Z,5.60
2019-01-06T01:27:22.311Z,5.70
2019-01-06T01:29:54.119Z,5.70
2019-01-06T01:32:28.391Z,5.70
2019-01-06T01:35:02.811Z,5.80
2019-01-06T01:37:33.387Z,5.70
2019-01-06T01:40:04.250Z,5.70
2019-01-06T01:42:38.681Z,5.70
2019-01-06T01:45:09.359Z,5.70
2019-01-06T01:47:38.221Z,5.70
2019-01-06T01:50:08.909Z,5.70
2019-01-06T01:52:43.213Z,5.70
2019-01-06T01:55:17.616Z,5.70
2019-01-06T01:57:46.463Z,5.70
2019-01-06T02:00:20.200Z,5.70
2019-01-06T02:02:50.913Z,5.70
2019-01-06T02:05:20.651Z,5.70
2019-01-06T02:07:52.230Z,5.70
2019-01-06T02:10:25.619Z,5.70
2019-01-06T02:13:00.077Z,5.70
2019-01-06T02:15:29.023Z,5.80
2019-01-06T02:17:58.724Z,5.80
2019-01-06T02:20:30.337Z,5.80
2019-01-06T02:23:05.377Z,5.70
2019-01-06T02:25:34.205Z,5.80
2019-01-06T02:28:08.633Z,5.80
2019-01-06T02:30:40.177Z,5.80
2019-01-06T02:33:14.484Z,5.80
2019-01-06T02:35:46.152Z,5.80
2019-01-06T02:38:20.011Z,5.80
2019-01-06T02:40:49.767Z,5.80
2019-01-06T02:43:18.683Z,5.80
2019-01-06T02:45:49.238Z,5.80
2019-01-06T02:48:23.588Z,5.80
2019-01-06T02:50:56.186Z,5.80
2019-01-06T02:53:25.983Z,5.80
2019-01-06T02:56:01.148Z,5.80
2019-01-06T02:58:35.746Z,5.80
2019-01-06T03:01:06.299Z,5.80
2019-01-06T03:03:35.888Z,5.80
2019-01-06T03:06:06.454Z,5.80
2019-01-06T03:08:40.318Z,5.80
2019-01-06T03:11:14.749Z,5.80
2019-01-06T03:13:44.458Z,5.80
2019-01-06T03:16:16.140Z,5.80
2019-01-06T03:18:44.975Z,5.90
2019-01-06T03:21:19.759Z,5.90
2019-01-06T03:23:49.324Z,5.90
2019-01-06T03:26:23.070Z,5.90
2019-01-06T03:28:51.883Z,5.90
2019-01-06T03:31:26.234Z,5.90
2019-01-06T03:33:56.873Z,5.90
2019-01-06T03:36:31.653Z,5.90
2019-01-06T03:39:04.321Z,5.90
2019-01-06T03:41:39.726Z,5.90
2019-01-06T03:44:08.555Z,5.80
2019-01-06T03:46:40.365Z,5.90
2019-01-06T03:49:13.048Z,5.90
2019-01-06T03:51:47.667Z,5.80
2019-01-06T03:54:18.238Z,5.80
2019-01-06T03:56:49.031Z,5.80
2019-01-06T03:59:17.832Z,5.80
2019-01-06T04:01:47.419Z,5.70
2019-01-06T04:04:19.191Z,5.70
2019-01-06T04:06:53.495Z,5.70
2019-01-06T04:09:25.163Z,5.70
2019-01-06T04:11:59.477Z,5.70
2019-01-06T04:14:30.278Z,5.70
2019-01-06T04:16:59.833Z,5.70
2019-01-06T04:19:34.995Z,5.70
2019-01-06T04:22:09.465Z,5.70
2019-01-06T04:24:44.088Z,5.70
2019-01-06T04:27:13.705Z,5.80
2019-01-06T04:29:42.611Z,5.80
2019-01-06T04:32:12.159Z,5.80
2019-01-06T04:34:45.030Z,5.80
2019-01-06T04:37:15.654Z,5.80
2019-01-06T04:39:45.403Z,5.80
2019-01-06T04:42:16.125Z,5.80
2019-01-06T04:44:45.734Z,5.80
2019-01-06T04:47:19.677Z,5.80
2019-01-06T04:49:53.967Z,5.80
2019-01-06T04:52:28.315Z,5.80
2019-01-06T04:55:02.627Z,5.80
2019-01-06T05:00:01.952Z,5.90
2019-01-06T05:02:30.757Z,5.90
2019-01-06T05:05:04.350Z,5.90
2019-01-06T05:07:35.996Z,6.00
2019-01-06T05:10:10.361Z,6.00
2019-01-06T05:12:44.799Z,5.90
2019-01-06T05:15:19.557Z,5.90
2019-01-06T05:17:52.138Z,5.90
2019-01-06T05:20:21.981Z,5.90
2019-01-06T05:22:51.657Z,5.90
2019-01-06T05:25:21.357Z,5.90
2019-01-06T05:27:50.954Z,5.90
2019-01-06T05:30:22.675Z,5.90
2019-01-06T05:32:57.283Z,5.90
2019-01-06T05:35:31.626Z,5.80
2019-01-06T05:38:00.486Z,5.80
2019-01-06T05:40:30.233Z,5.80
2019-01-06T05:43:03.013Z,5.80
2019-01-06T05:45:31.865Z,5.70
2019-01-06T05:48:01.563Z,5.70
2019-01-06T05:50:31.275Z,5.70
2019-01-06T05:53:05.629Z,5.70
2019-01-06T05:55:38.445Z,5.70
2019-01-06T05:58:08.014Z,5.70
2019-01-06T06:00:36.857Z,5.70
2019-01-06T06:03:08.203Z,5.70
2019-01-06T06:05:36.995Z,5.70
2019-01-06T06:08:11.579Z,5.70
2019-01-06T06:10:45.242Z,5.70
2019-01-06T06:13:19.003Z,5.70
2019-01-06T06:15:53.885Z,5.60
2019-01-06T06:18:26.211Z,5.60
2019-01-06T06:21:00.511Z,5.60
2019-01-06T06:23:34.335Z,5.60
2019-01-06T06:26:07.982Z,5.60
2019-01-06T06:28:38.356Z,5.60
2019-01-06T06:31:12.825Z,5.60
2019-01-06T06:33:45.419Z,5.60
2019-01-06T06:36:19.936Z,5.60
2019-01-06T06:38:53.565Z,5.60
2019-01-06T06:41:24.210Z,5.60
2019-01-06T06:43:53.098Z,5.60
2019-01-06T06:46:24.721Z,5.60
2019-01-06T06:48:53.566Z,5.60
2019-01-06T06:51:22.467Z,5.60
2019-01-06T06:53:56.060Z,5.60
2019-01-06T06:59:06.226Z,5.70
2019-01-06T07:01:42.045Z,5.60
2019-01-06T07:04:11.257Z,5.60
2019-01-06T07:06:45.700Z,5.60
2019-01-06T07:09:14.591Z,5.60
2019-01-06T07:11:47.342Z,5.70
2019-01-06T07:14:19.227Z,5.70
2019-01-06T07:17:09.457Z,5.70
2019-01-06T07:19:38.303Z,5.70
2019-01-06T07:22:07.135Z,5.70
2019-01-06T07:24:36.878Z,5.70
2019-01-06T07:27:11.193Z,5.70
2019-01-06T07:29:40.103Z,5.70
2019-01-06T07:32:10.667Z,5.70
2019-01-06T07:34:41.421Z,5.70
2019-01-06T07:37:11.157Z,5.70
2019-01-06T07:39:41.849Z,5.80
2019-01-06T07:42:11.440Z,5.70
2019-01-06T07:44:45.916Z,5.70
2019-01-06T07:47:20.214Z,5.70
2019-01-06T07:49:50.789Z,5.70
2019-01-06T07:52:25.505Z,5.70
2019-01-06T07:54:56.194Z,5.80
2019-01-06T07:57:25.778Z,5.80
2019-01-06T07:59:54.618Z,5.80
2019-01-06T08:02:23.448Z,5.80
2019-01-06T08:04:54.253Z,5.80
2019-01-06T08:07:24.846Z,5.80
2019-01-06T08:09:56.694Z,5.90
2019-01-06T08:12:26.230Z,5.90
2019-01-06T08:14:55.130Z,6.00
2019-01-06T08:17:29.483Z,6.00
2019-01-06T08:20:03.793Z,5.90
2019-01-06T08:22:36.569Z,6.00
2019-01-06T08:25:11.781Z,6.00
2019-01-06T08:27:41.497Z,6.10
2019-01-06T08:30:10.398Z,6.00
2019-01-06T08:32:40.145Z,6.00
2019-01-06T08:35:14.432Z,6.00
2019-01-06T08:37:48.723Z,6.00
2019-01-06T08:40:18.346Z,6.10
2019-01-06T08:42:52.051Z,6.10
2019-01-06T08:45:27.346Z,6.00
2019-01-06T08:47:56.989Z,6.10
2019-01-06T08:50:27.657Z,6.00
2019-01-06T08:55:36.965Z,6.00
2019-01-06T08:58:05.866Z,6.00
2019-01-06T09:00:40.157Z,6.10
2019-01-06T09:03:10.725Z,6.10
2019-01-06T09:05:44.456Z,6.10
2019-01-06T09:08:14.220Z,6.10
2019-01-06T09:10:48.551Z,6.10
2019-01-06T09:13:23.584Z,6.10
2019-01-06T09:15:57.914Z,6.10
2019-01-06T09:18:27.492Z,6.10
2019-01-06T09:21:02.294Z,6.10
2019-01-06T09:23:32.953Z,6.20
2019-01-06T09:26:06.702Z,6.20
2019-01-06T09:28:36.396Z,6.20
2019-01-06T09:31:08.915Z,6.20
2019-01-06T09:33:43.351Z,6.20
2019-01-06T09:36:12.187Z,6.20
2019-01-06T09:38:43.536Z,6.20
2019-01-06T09:41:18.185Z,6.20
2019-01-06T09:43:52.687Z,6.20
2019-01-06T09:46:24.368Z,6.20
2019-01-06T09:48:55.055Z,6.20
2019-01-06T09:51:27.827Z,6.30
2019-01-06T09:53:58.543Z,6.20
2019-01-06T09:56:29.275Z,6.20
2019-01-06T09:59:04.041Z,6.20
2019-01-06T10:01:39.558Z,6.20
2019-01-06T10:04:08.464Z,6.30
2019-01-06T10:06:43.544Z,6.30
2019-01-06T10:09:14.141Z,6.30
2019-01-06T10:11:45.549Z,6.30
2019-01-06T10:14:19.279Z,6.30
2019-01-06T10:16:49.889Z,6.30
2019-01-06T10:19:18.793Z,6.30
2019-01-06T10:21:53.259Z,6.40
2019-01-06T10:24:22.107Z,6.40
2019-01-06T10:26:56.507Z,6.40
2019-01-06T10:29:25.409Z,6.60
2019-01-06T10:31:54.977Z,6.60
2019-01-06T10:34:27.590Z,6.70
2019-01-06T10:37:05.493Z,7.10
2019-01-06T10:39:38.878Z,7.00
2019-01-06T10:42:07.811Z,7.00
2019-01-06T10:44:40.566Z,7.10
2019-01-06T10:47:13.153Z,7.00
2019-01-06T10:49:44.936Z,7.10
2019-01-06T10:52:13.747Z,6.90
2019-01-06T10:54:42.585Z,6.90
2019-01-06T10:57:12.175Z,6.80
2019-01-06T10:59:42.813Z,6.70
2019-01-06T11:04:43.965Z,6.70
2019-01-06T11:07:12.885Z,6.70
2019-01-06T11:09:43.496Z,6.70
2019-01-06T11:12:17.818Z,6.70
2019-01-06T11:14:49.536Z,6.70
2019-01-06T11:17:18.296Z,6.70
2019-01-06T11:19:48.926Z,6.70
2019-01-06T11:22:17.778Z,6.70
2019-01-06T11:24:46.682Z,6.70
2019-01-06T11:27:20.227Z,6.80
2019-01-06T11:29:49.055Z,6.80
2019-01-06T11:34:53.751Z,6.80
2019-01-06T11:37:28.102Z,6.80
2019-01-06T11:40:00.726Z,6.80
2019-01-06T11:42:35.219Z,6.70
2019-01-06T11:45:05.061Z,6.80
2019-01-06T11:47:35.792Z,6.80
2019-01-06T11:50:10.135Z,6.80
2019-01-06T11:52:41.868Z,6.80
2019-01-06T11:55:10.711Z,6.80
2019-01-06T11:57:39.567Z,6.80
2019-01-06T12:00:09.149Z,6.80
2019-01-06T12:02:44.394Z,6.80
2019-01-06T12:05:15.113Z,6.80
2019-01-06T12:07:43.915Z,6.80
2019-01-06T12:10:18.353Z,6.80
2019-01-06T12:12:50.611Z,6.80
2019-01-06T12:15:18.917Z,6.80
2019-01-06T12:17:53.290Z,6.80
2019-01-06T12:20:24.810Z,6.80
2019-01-06T12:22:57.521Z,6.90
2019-01-06T12:25:26.374Z,7.00
2019-01-06T12:30:32.205Z,6.90
2019-01-06T12:33:04.938Z,6.90
2019-01-06T12:35:34.773Z,6.80
2019-01-06T12:38:08.461Z,6.80
2019-01-06T12:40:39.087Z,6.90
2019-01-06T12:43:07.940Z,6.80
2019-01-06T12:45:36.884Z,6.90
2019-01-06T12:48:10.538Z,6.90
2019-01-06T12:50:43.345Z,6.80
2019-01-06T12:53:17.742Z,6.80
2019-01-06T12:55:49.513Z,6.80
2019-01-06T12:58:19.103Z,6.80
2019-01-06T13:00:53.425Z,6.80
2019-01-06T13:03:22.359Z,6.80
2019-01-06T13:05:53.687Z,6.80
2019-01-06T13:08:28.142Z,6.80
2019-01-06T13:11:02.430Z,6.80
2019-01-06T13:13:36.812Z,6.90
2019-01-06T13:16:06.803Z,6.80
2019-01-06T13:18:41.195Z,6.80
2019-01-06T13:21:13.904Z,6.80
2019-01-06T13:23:47.663Z,6.80
2019-01-06T13:26:16.509Z,6.80
2019-01-06T13:28:45.347Z,6.70
2019-01-06T13:31:19.803Z,6.60
2019-01-06T13:33:52.588Z,6.70
2019-01-06T13:36:21.535Z,6.70
2019-01-06T13:38:52.455Z,6.60
2019-01-06T13:41:26.903Z,6.60
2019-01-06T13:43:59.500Z,6.60
2019-01-06T13:46:33.816Z,6.60
2019-01-06T13:49:04.529Z,6.60
2019-01-06T13:51:39.660Z,6.50
2019-01-06T13:54:12.367Z,6.60
2019-01-06T13:56:47.444Z,6.60
2019-01-06T13:59:16.371Z,6.60
2019-01-06T14:01:51.612Z,6.60
2019-01-06T14:04:21.204Z,6.60
2019-01-06T14:06:55.530Z,6.60
2019-01-06T14:09:30.679Z,6.70
2019-01-06T14:11:59.576Z,6.70
2019-01-06T14:14:28.434Z,6.60
2019-01-06T14:16:58.281Z,6.50
2019-01-06T14:19:28.974Z,6.50
2019-01-06T14:21:58.559Z,6.50
2019-01-06T14:24:32.889Z,6.50
2019-01-06T14:27:02.531Z,6.50
2019-01-06T14:29:31.353Z,6.50
2019-01-06T14:32:06.089Z,6.50
2019-01-06T14:34:36.803Z,6.50
2019-01-06T14:37:05.619Z,6.50
2019-01-06T14:39:34.482Z,6.50
2019-01-06T14:42:05.286Z,6.50
2019-01-06T14:44:35.917Z,6.50
2019-01-06T14:47:11.088Z,6.50
2019-01-06T14:49:41.803Z,6.70
2019-01-06T14:52:13.608Z,6.60
2019-01-06T14:54:44.298Z,6.60
2019-01-06T14:57:16.852Z,6.60
2019-01-06T14:59:51.902Z,6.60
2019-01-06T15:02:26.184Z,6.60
2019-01-06T15:04:55.056Z,6.60
2019-01-06T15:07:25.827Z,6.60
2019-01-06T15:10:01.051Z,6.60
2019-01-06T15:12:32.610Z,6.60
2019-01-06T15:15:05.196Z,6.60
2019-01-06T15:17:34.917Z,6.50
2019-01-06T15:20:07.615Z,6.60
2019-01-06T15:22:42.817Z,6.60
2019-01-06T15:25:13.323Z,6.60
2019-01-06T15:27:47.147Z,6.60
2019-01-06T15:30:21.474Z,6.60
2019-01-06T15:32:51.162Z,6.50
2019-01-06T15:35:23.591Z,6.50
2019-01-06T15:37:53.182Z,6.60
2019-01-06T15:40:27.465Z,6.60
2019-01-06T15:42:57.042Z,6.50
2019-01-06T15:45:25.892Z,6.50
2019-01-06T15:47:54.765Z,6.50
2019-01-06T15:50:25.372Z,6.50
2019-01-06T15:52:54.204Z,6.40
2019-01-06T15:55:24.964Z,6.40
2019-01-06T15:57:59.343Z,6.40
2019-01-06T16:00:29.949Z,6.40
2019-01-06T16:02:58.750Z,6.30
2019-01-06T16:05:33.352Z,6.30
2019-01-06T16:10:37.905Z,6.30
2019-01-06T16:13:07.487Z,6.30
2019-01-06T16:15:41.871Z,6.20
2019-01-06T16:18:16.363Z,6.20
2019-01-06T16:20:48.007Z,6.30
2019-01-06T16:23:17.805Z,6.30
2019-01-06T16:25:46.607Z,6.30
2019-01-06T16:28:16.215Z,6.30
2019-01-06T16:30:49.803Z,6.30
2019-01-06T16:33:18.654Z,6.40
2019-01-06T16:35:53.578Z,6.40
2019-01-06T16:38:26.685Z,6.30
2019-01-06T16:40:54.681Z,6.40
2019-01-06T16:43:30.639Z,6.40
2019-01-06T16:45:58.072Z,6.40
2019-01-06T16:48:27.945Z,6.40
2019-01-06T16:50:56.765Z,6.40
2019-01-06T16:53:25.618Z,6.40
2019-01-06T16:55:54.545Z,6.40
2019-01-06T16:58:24.397Z,6.40
2019-01-06T17:00:53.988Z,6.40
2019-01-06T17:03:27.707Z,6.50
2019-01-06T17:05:57.311Z,6.40
2019-01-06T17:08:30.090Z,6.40
2019-01-06T17:13:34.765Z,6.40
2019-01-06T17:16:04.467Z,6.40
2019-01-06T17:18:35.926Z,6.40
2019-01-06T17:21:04.781Z,6.40
2019-01-06T17:23:35.559Z,6.30
2019-01-06T17:26:04.517Z,6.40
2019-01-06T17:28:38.929Z,6.30
2019-01-06T17:31:10.525Z,6.30
2019-01-06T17:33:40.178Z,6.30
2019-01-06T17:36:09.907Z,6.30
2019-01-06T17:38:42.633Z,6.30
2019-01-06T17:41:11.472Z,6.30
2019-01-06T17:43:41.094Z,6.30
2019-01-06T17:48:49.157Z,6.40
2019-01-06T17:51:20.747Z,6.30
2019-01-06T17:53:53.556Z,6.30
2019-01-06T17:56:25.298Z,6.30
2019-01-06T17:59:00.622Z,6.30
2019-01-06T18:04:05.236Z,6.30
2019-01-06T18:06:34.167Z,6.30
2019-01-06T18:09:09.338Z,6.30
2019-01-06T18:11:43.022Z,6.30
2019-01-06T18:14:12.676Z,6.30
2019-01-06T18:16:42.311Z,6.30
2019-01-06T18:19:16.775Z,6.30
2019-01-06T18:21:45.609Z,6.30
2019-01-06T18:24:20.512Z,6.30
2019-01-06T18:26:55.192Z,6.20
2019-01-06T18:29:29.509Z,6.20
2019-01-06T18:32:03.794Z,6.20
2019-01-06T18:34:36.529Z,6.20
2019-01-06T18:37:10.302Z,6.20
2019-01-06T18:39:41.072Z,6.10
2019-01-06T18:42:09.946Z,6.20
2019-01-06T18:44:44.287Z,6.10
2019-01-06T18:47:18.898Z,6.10
2019-01-06T18:49:50.663Z,6.10
2019-01-06T18:52:20.232Z,6.10
2019-01-06T18:54:49.123Z,6.10
2019-01-06T18:57:23.442Z,6.10
2019-01-06T18:59:56.998Z,6.20
2019-01-06T19:02:26.636Z,6.20
2019-01-06T19:04:55.503Z,6.10
2019-01-06T19:07:26.201Z,6.10
2019-01-06T19:10:00.826Z,6.10
2019-01-06T19:12:31.200Z,6.10
2019-01-06T19:15:00.778Z,6.10
2019-01-06T19:17:30.432Z,6.10
2019-01-06T19:20:05.446Z,6.00
2019-01-06T19:22:39.713Z,6.00
2019-01-06T19:25:08.585Z,6.00
2019-01-06T19:27:42.992Z,6.00
2019-01-06T19:30:17.396Z,6.10
2019-01-06T19:32:49.234Z,6.10
2019-01-06T19:35:21.012Z,6.00
2019-01-06T19:37:52.734Z,6.00
2019-01-06T19:40:27.060Z,6.00
2019-01-06T19:42:55.912Z,6.00
2019-01-06T19:45:25.497Z,6.00
2019-01-06T19:47:55.319Z,6.00
2019-01-06T19:50:29.795Z,6.00
2019-01-06T19:53:03.521Z,6.00
2019-01-06T19:58:01.881Z,6.00
2019-01-06T20:00:30.822Z,6.00
2019-01-06T20:03:03.576Z,6.00
2019-01-06T20:05:32.489Z,6.00
2019-01-06T20:08:05.998Z,6.00
2019-01-06T20:10:35.703Z,6.10
2019-01-06T20:13:09.718Z,6.10
2019-01-06T20:15:42.084Z,6.10
2019-01-06T20:18:14.722Z,6.10
2019-01-06T20:20:49.423Z,6.10
2019-01-06T20:23:20.187Z,6.10
2019-01-06T20:25:49.042Z,6.10
2019-01-06T20:28:18.740Z,6.10
2019-01-06T20:30:51.368Z,6.10
2019-01-06T20:33:25.707Z,6.00
2019-01-06T20:35:59.394Z,6.00
2019-01-06T20:38:32.155Z,6.00
2019-01-06T20:41:06.911Z,6.00
2019-01-06T20:43:35.761Z,5.90
2019-01-06T20:46:04.703Z,6.00
2019-01-06T20:48:35.437Z,5.90
2019-01-06T20:51:04.292Z,5.90
2019-01-06T20:53:36.930Z,5.90
2019-01-06T20:56:05.770Z,5.90
2019-01-06T20:58:36.406Z,5.90
2019-01-06T21:01:08.075Z,5.90
2019-01-06T21:03:43.096Z,5.90
2019-01-06T21:06:15.802Z,5.90
2019-01-06T21:08:49.408Z,5.90
2019-01-06T21:11:19.027Z,5.90
2019-01-06T21:13:54.191Z,5.90
2019-01-06T21:16:24.879Z,5.90
2019-01-06T21:18:55.458Z,5.80
2019-01-06T21:21:29.311Z,5.80
2019-01-06T21:23:58.154Z,5.80
2019-01-06T21:26:29.728Z,5.60
2019-01-06T21:28:58.621Z,5.70
2019-01-06T21:31:27.446Z,5.60
2019-01-06T21:33:57.038Z,5.60
2019-01-06T21:36:27.654Z,5.50
2019-01-06T21:39:00.443Z,5.60
2019-01-06T21:44:04.360Z,5.60
2019-01-06T21:46:38.023Z,5.60
2019-01-06T21:49:06.965Z,5.60
2019-01-06T21:51:36.548Z,5.60
2019-01-06T21:54:05.459Z,5.60
2019-01-06T21:56:36.201Z,5.60
2019-01-06T21:59:05.795Z,5.60
2019-01-06T22:01:40.238Z,5.70
2019-01-06T22:04:11.713Z,5.70
2019-01-06T22:06:42.357Z,5.70
2019-01-06T22:09:11.965Z,5.70
2019-01-06T22:11:41.523Z,5.60
2019-01-06T22:14:12.108Z,5.50
2019-01-06T22:16:43.829Z,5.60
2019-01-06T22:19:12.636Z,5.50
2019-01-06T22:21:41.588Z,5.50
2019-01-06T22:24:10.494Z,5.40
2019-01-06T22:26:44.904Z,5.50
2019-01-06T22:29:19.981Z,5.50
2019-01-06T22:31:50.782Z,5.50
2019-01-06T22:34:22.410Z,5.40
2019-01-06T22:36:56.866Z,5.30
2019-01-06T22:39:26.582Z,5.40
2019-01-06T22:41:56.101Z,5.40
2019-01-06T22:44:26.739Z,5.40
2019-01-06T22:46:59.464Z,5.30
2019-01-06T22:49:28.389Z,5.40
2019-01-06T22:51:58.842Z,5.40
2019-01-06T22:54:32.482Z,5.50
2019-01-06T22:57:01.375Z,5.50
2019-01-06T22:59:35.688Z,5.40
2019-01-06T23:02:10.802Z,5.40
2019-01-06T23:04:44.442Z,5.40
2019-01-06T23:07:23.647Z,5.30
2019-01-06T23:09:52.159Z,5.30
2019-01-06T23:12:22.494Z,5.20
2019-01-06T23:14:56.395Z,5.20
2019-01-06T23:17:26.071Z,5.20
2019-01-06T23:19:55.796Z,5.20
2019-01-06T23:22:30.179Z,5.30
2019-01-06T23:25:04.478Z,5.20
2019-01-06T23:27:38.942Z,5.20
2019-01-06T23:30:09.688Z,5.20
2019-01-06T23:32:39.277Z,5.20
2019-01-06T23:35:10.938Z,5.30
2019-01-06T23:37:45.185Z,5.30
2019-01-06T23:40:15.960Z,5.30
2019-01-06T23:42:44.899Z,5.20
2019-01-06T23:45:17.669Z,5.20
2019-01-06T23:47:49.420Z,5.30
2019-01-06T23:50:22.236Z,5.40
2019-01-06T23:55:24.377Z,5.40
2019-01-06T23:57:55.120Z,5.40
